Time;durP1;ratioP1;P1;durP2;ratioP2;P2;SDS_P1;SDS_P2;PMS_P1;PMS_P2;Temp;Humidity;BMP_temperature;BMP_pressure;BME280_temperature;BME280_humidity;BME280_pressure;Samples;Min_cycle;Max_cycle;Signal;HPM_P1;HPM_P2
2023/11/24 00:02:06;;;;;;;0.32;0.32;;;;;;;3.26;59.35;99126.50;4278330;33;20077;-91
2023/11/24 00:04:31;;;;;;;0.73;0.73;;;;;;;3.03;59.34;99125.06;4272041;33;20118;-93
2023/11/24 00:06:57;;;;;;;1.00;1.00;;;;;;;3.27;59.36;99117.91;4268038;33;20211;-93
2023/11/24 00:09:29;;;;;;;1.48;0.50;;;;;;;3.13;59.35;99130.13;4265902;33;20161;-93
2023/11/24 00:11:54;;;;;;;0.10;0.10;;;;;;;3.04;59.34;99128.50;4268145;33;20164;-92
2023/11/24 00:14:20;;;;;;;2.37;2.20;;;;;;;2.90;59.34;99120.09;4265332;33;20161;-92
2023/11/24 00:16:47;;;;;;;5.55;2.33;;;;;;;2.88;59.34;99109.84;4255214;33;23543;-93
2023/11/24 00:19:15;;;;;;;0.70;0.70;;;;;;;2.87;59.33;99104.72;4265327;33;20758;-92
2023/11/24 00:21:41;;;;;;;0.80;0.65;;;;;;;2.87;59.33;99097.84;4274481;33;20179;-91
2023/11/24 00:24:07;;;;;;;0.45;0.45;;;;;;;2.75;59.33;99075.69;4263133;33;20113;-91
2023/11/24 00:26:32;;;;;;;2.08;1.98;;;;;;;2.74;59.33;99079.13;4265466;33;20109;-92
2023/11/24 00:28:58;;;;;;;0.03;0.03;;;;;;;2.83;59.33;99067.88;4265142;33;20172;-92
2023/11/24 00:31:26;;;;;;;1.45;1.35;;;;;;;2.74;59.33;99055.16;4278929;33;20100;-92
2023/11/24 00:33:55;;;;;;;0.65;0.65;;;;;;;2.72;59.33;99042.34;4267780;33;20157;-92
2023/11/24 00:36:21;;;;;;;1.27;0.85;;;;;;;2.56;59.31;99040.78;4254968;33;20482;-92
2023/11/24 00:38:49;;;;;;;0.30;0.30;;;;;;;2.77;59.33;99026.84;4265484;33;20112;-94
2023/11/24 00:41:15;;;;;;;0.30;0.30;;;;;;;2.86;59.33;99018.19;4265626;33;20119;-93
2023/11/24 00:43:41;;;;;;;1.23;1.20;;;;;;;2.76;59.32;99010.59;4262670;33;20122;-93
2023/11/24 00:46:08;;;;;;;2.08;1.87;;;;;;;2.68;59.32;99007.28;4287452;33;20185;-94
2023/11/24 00:48:35;;;;;;;1.75;0.80;;;;;;;2.70;59.32;99009.81;4265576;33;20108;-92
2023/11/24 00:51:00;;;;;;;3.20;1.85;;;;;;;2.85;59.33;99013.94;4265674;33;20119;-94
2023/11/24 00:53:36;;;;;;;1.87;1.77;;;;;;;3.04;59.34;99005.06;4265783;33;20097;-94
2023/11/24 00:56:02;;;;;;;3.60;0.98;;;;;;;2.88;59.34;99007.03;4261121;33;20209;-94
2023/11/24 00:58:28;;;;;;;1.85;1.37;;;;;;;2.87;59.32;99005.31;4269628;33;20124;-94
2023/11/24 01:00:56;;;;;;;2.50;2.33;;;;;;;2.77;59.33;99002.00;4273194;33;20162;-95
2023/11/24 01:03:21;;;;;;;0.47;0.45;;;;;;;2.83;59.33;99000.22;4269720;33;20093;-91
2023/11/24 01:05:49;;;;;;;0.65;0.47;;;;;;;2.68;59.32;98999.56;4280790;33;20213;-95
2023/11/24 01:08:14;;;;;;;0.25;0.25;;;;;;;2.77;59.33;98991.72;4263255;33;20099;-94
2023/11/24 01:10:40;;;;;;;0.65;0.65;;;;;;;2.70;59.32;98995.25;4258386;33;20144;-94
2023/11/24 01:13:05;;;;;;;0.05;0.05;;;;;;;2.66;59.33;98993.59;4267658;33;20172;-94
2023/11/24 01:15:33;;;;;;;2.67;1.60;;;;;;;2.62;59.32;98991.09;4277480;33;20101;-95
2023/11/24 01:18:00;;;;;;;0.10;0.10;;;;;;;2.78;59.32;98996.00;4286735;33;20100;-95
2023/11/24 01:20:25;;;;;;;1.90;1.67;;;;;;;2.78;59.32;98993.41;4267970;33;20176;-95
2023/11/24 01:22:53;;;;;;;0.55;0.55;;;;;;;2.56;59.31;98994.56;4267872;33;20092;-95
2023/11/24 01:25:19;;;;;;;2.47;2.30;;;;;;;2.42;59.30;98993.88;4267995;33;20109;-95
2023/11/24 01:27:44;;;;;;;0.22;0.22;;;;;;;2.32;59.30;98982.00;4265479;33;20123;-95
2023/11/24 01:30:10;;;;;;;2.65;1.23;;;;;;;2.41;59.30;98972.50;4266820;33;20109;-95
2023/11/24 01:32:38;;;;;;;0.75;0.75;;;;;;;2.31;59.30;98965.75;4277648;33;21057;-94
2023/11/24 01:35:05;;;;;;;0.55;0.55;;;;;;;2.28;59.29;98963.22;4268054;33;20140;-94
2023/11/24 01:37:31;;;;;;;0.43;0.43;;;;;;;2.39;59.31;98950.25;4277158;33;20185;-94
2023/11/24 01:39:59;;;;;;;6.30;1.65;;;;;;;2.43;59.32;98951.91;4291739;33;20093;-94
2023/11/24 01:42:27;;;;;;;1.87;1.75;;;;;;;2.39;59.31;98940.00;4266592;33;20088;-94
2023/11/24 01:44:52;;;;;;;0.10;0.10;;;;;;;2.58;59.32;98922.59;4277171;33;20851;-96
2023/11/24 01:47:18;;;;;;;1.20;1.20;;;;;;;2.62;59.32;98916.56;4276135;33;20096;-96
2023/11/24 01:49:45;;;;;;;0.80;0.65;;;;;;;2.37;59.31;98905.78;4265317;33;20089;-94
2023/11/24 01:52:16;;;;;;;0.32;0.32;;;;;;;2.36;59.31;98899.75;4297308;33;20164;-93
2023/11/24 01:54:46;;;;;;;0.10;0.10;;;;;;;2.43;59.32;98897.97;4279709;33;20160;-94
2023/11/24 01:57:12;;;;;;;2.17;1.35;;;;;;;2.66;59.32;98898.53;4257760;33;20134;-93
2023/11/24 01:59:38;;;;;;;0.82;0.57;;;;;;;3.05;59.34;98909.09;4267629;33;20104;-96
2023/11/24 02:02:06;;;;;;;1.25;1.17;;;;;;;2.86;59.33;98900.81;4267067;33;20129;-93
2023/11/24 02:04:31;;;;;;;0.00;0.00;;;;;;;2.51;59.32;98900.44;4266828;33;20494;-92
2023/11/24 02:06:57;;;;;;;0.43;0.43;;;;;;;2.52;59.32;98889.28;4272485;33;20133;-93
2023/11/24 02:09:23;;;;;;;0.47;0.47;;;;;;;2.62;59.32;98883.19;4260771;33;20084;-91
2023/11/24 02:11:51;;;;;;;0.55;0.55;;;;;;;2.33;59.30;98884.38;4277674;33;20142;-93
2023/11/24 02:14:17;;;;;;;0.65;0.65;;;;;;;2.51;59.32;98877.31;4272016;33;20108;-93
2023/11/24 02:16:43;;;;;;;0.20;0.20;;;;;;;2.40;59.30;98867.22;4286850;33;20426;-92
2023/11/24 02:19:08;;;;;;;0.82;0.65;;;;;;;2.62;59.32;98849.78;4266796;33;20100;-93
2023/11/24 02:21:33;;;;;;;2.40;1.08;;;;;;;2.70;59.32;98842.81;4265118;33;20200;-94
2023/11/24 02:23:59;;;;;;;1.05;1.05;;;;;;;2.56;59.31;98839.56;4264715;33;20113;-94
2023/11/24 02:26:25;;;;;;;1.60;0.90;;;;;;;2.64;59.33;98843.75;4266184;33;20124;-93
2023/11/24 02:28:51;;;;;;;0.15;0.15;;;;;;;2.72;59.33;98826.47;4266353;33;20118;-94
2023/11/24 02:31:18;;;;;;;0.73;0.73;;;;;;;2.65;59.31;98824.88;4267015;33;20108;-94
2023/11/24 02:33:44;;;;;;;0.65;0.65;;;;;;;2.99;59.34;98806.34;4285282;33;20120;-93
2023/11/24 02:36:17;;;;;;;0.20;0.20;;;;;;;2.88;59.34;98801.41;4257847;33;20133;-94
2023/11/24 02:38:46;;;;;;;0.62;0.20;;;;;;;2.99;59.34;98791.78;4271850;33;20088;-94
2023/11/24 02:41:15;;;;;;;0.90;0.90;;;;;;;3.03;59.34;98795.13;4277046;33;20112;-93
2023/11/24 02:43:40;;;;;;;1.42;1.37;;;;;;;3.13;59.35;98781.28;4274796;33;20189;-94
2023/11/24 02:46:06;;;;;;;1.75;1.65;;;;;;;3.21;59.35;98786.25;4256599;33;20132;-95
2023/11/24 02:48:31;;;;;;;3.03;1.45;;;;;;;3.38;59.36;98761.94;4267146;33;20088;-95
2023/11/24 02:50:57;;;;;;;2.20;2.10;;;;;;;3.26;59.36;98769.88;4279089;33;20359;-94
2023/11/24 02:53:22;;;;;;;0.60;0.60;;;;;;;3.51;59.37;98747.09;4259048;33;20121;-95
2023/11/24 02:55:48;;;;;;;0.10;0.10;;;;;;;3.72;59.38;98750.97;4274617;33;20109;-95
2023/11/24 02:58:13;;;;;;;2.33;1.70;;;;;;;3.82;59.38;98751.66;4259958;33;20440;-92
2023/11/24 03:00:39;;;;;;;3.80;1.55;;;;;;;3.89;59.39;98748.91;4266932;33;20089;-92
2023/11/24 03:03:05;;;;;;;0.90;0.68;;;;;;;3.61;59.38;98758.94;4266970;33;20161;-93
2023/11/24 03:05:30;;;;;;;0.10;0.10;;;;;;;3.52;59.37;98753.94;4275594;33;20483;-93
2023/11/24 03:07:56;;;;;;;0.98;0.90;;;;;;;3.59;59.37;98744.41;4270736;33;20120;-91
2023/11/24 03:10:22;;;;;;;0.25;0.25;;;;;;;3.61;59.38;98746.06;4292840;33;20123;-92
2023/11/24 03:12:47;;;;;;;0.30;0.30;;;;;;;4.02;59.40;98754.62;4297727;33;20178;-92
2023/11/24 03:15:13;;;;;;;0.80;0.68;;;;;;;4.18;59.40;98745.69;4256769;33;20093;-93
2023/11/24 03:17:38;;;;;;;0.65;0.65;;;;;;;4.17;59.41;98749.16;4266011;33;20097;-93
2023/11/24 03:20:04;;;;;;;0.90;0.90;;;;;;;4.11;59.40;98731.28;4266318;33;20467;-92
2023/11/24 03:22:29;;;;;;;2.92;2.08;;;;;;;3.84;59.39;98722.44;4259204;33;20460;-93
2023/11/24 03:24:55;;;;;;;0.10;0.10;;;;;;;3.91;59.40;98713.69;4275420;33;20130;-92
2023/11/24 03:27:20;;;;;;;6.95;1.35;;;;;;;3.87;59.39;98712.06;4265988;33;20133;-92
2023/11/24 03:29:46;;;;;;;1.10;1.05;;;;;;;4.00;59.40;98712.63;4265661;33;20141;-93
2023/11/24 03:32:11;;;;;;;0.73;0.73;;;;;;;3.96;59.39;98704.13;4266399;33;20152;-93
2023/11/24 03:34:36;;;;;;;1.92;1.75;;;;;;;4.17;59.41;98694.22;4279924;33;20151;-93
2023/11/24 03:37:02;;;;;;;8.30;1.10;;;;;;;4.18;59.41;98683.03;4273928;33;20108;-94
2023/11/24 03:39:28;;;;;;;2.45;1.52;;;;;;;4.25;59.41;98687.16;4268419;33;20136;-94
2023/11/24 03:41:55;;;;;;;1.55;1.45;;;;;;;4.27;59.42;98672.53;4260588;33;20129;-94
2023/11/24 03:44:20;;;;;;;8.15;2.17;;;;;;;4.33;59.41;98662.06;4289360;33;20156;-94
2023/11/24 03:46:46;;;;;;;0.13;0.13;;;;;;;4.53;59.43;98649.56;4274351;33;20108;-94
2023/11/24 03:49:11;;;;;;;1.40;1.35;;;;;;;4.49;59.42;98644.50;4265649;33;20442;-94
2023/11/24 03:51:37;;;;;;;0.80;0.80;;;;;;;4.61;59.43;98647.62;4266520;33;20156;-94
2023/11/24 03:54:02;;;;;;;0.47;0.47;;;;;;;4.82;59.45;98643.63;4268643;33;20101;-93
2023/11/24 03:56:27;;;;;;;0.20;0.20;;;;;;;4.81;59.44;98644.53;4266489;33;20141;-93
2023/11/24 03:58:53;;;;;;;1.15;1.15;;;;;;;4.90;59.45;98635.69;4266591;33;20110;-93
2023/11/24 04:01:18;;;;;;;2.00;0.90;;;;;;;4.80;59.45;98621.37;4259339;33;20153;-92
2023/11/24 04:03:46;;;;;;;1.10;0.90;;;;;;;4.64;59.44;98631.22;4271865;33;20156;-91
2023/11/24 04:06:14;;;;;;;6.03;2.08;;;;;;;4.92;59.45;98621.87;4255497;33;20843;-90
2023/11/24 04:08:40;;;;;;;0.17;0.17;;;;;;;4.74;59.44;98619.81;4277273;33;20480;-93
2023/11/24 04:11:05;;;;;;;3.65;1.45;;;;;;;4.72;59.44;98608.66;4262104;33;20097;-90
2023/11/24 04:13:31;;;;;;;2.92;2.10;;;;;;;4.71;59.43;98600.97;4275033;33;20151;-92
2023/11/24 04:15:57;;;;;;;3.70;2.45;;;;;;;4.74;59.44;98596.59;4258465;33;20140;-93
2023/11/24 04:18:22;;;;;;;2.87;2.62;;;;;;;4.79;59.45;98591.31;4266194;33;20119;-94
2023/11/24 04:20:48;;;;;;;0.30;0.30;;;;;;;4.75;59.44;98580.25;4289861;33;20172;-93
2023/11/24 04:23:17;;;;;;;1.87;1.77;;;;;;;4.83;59.44;98570.56;4266099;33;20156;-96
2023/11/24 04:25:43;;;;;;;0.13;0.13;;;;;;;4.80;59.45;98568.06;4272011;33;20111;-96
2023/11/24 04:28:10;;;;;;;5.15;1.12;;;;;;;4.92;59.45;98561.72;4285478;33;20106;-95
2023/11/24 04:30:36;;;;;;;2.20;1.00;;;;;;;4.99;59.45;98558.09;4283681;33;20096;-95
2023/11/24 04:33:02;;;;;;;0.90;0.82;;;;;;;4.94;59.46;98565.09;4266708;33;20143;-95
2023/11/24 04:35:28;;;;;;;0.62;0.62;;;;;;;5.03;59.46;98557.12;4276038;33;20093;-94
2023/11/24 04:37:55;;;;;;;0.03;0.03;;;;;;;5.12;59.46;98559.41;4287865;33;20097;-95
2023/11/24 04:40:21;;;;;;;1.20;0.70;;;;;;;5.13;59.46;98549.94;4266974;33;20108;-95
2023/11/24 04:42:46;;;;;;;1.17;1.17;;;;;;;4.99;59.45;98545.19;4276779;33;20112;-93
2023/11/24 04:45:11;;;;;;;2.10;1.95;;;;;;;5.15;59.45;98530.94;4267426;33;20093;-93
2023/11/24 04:47:38;;;;;;;1.50;1.30;;;;;;;5.07;59.46;98539.81;4273567;33;20112;-94
2023/11/24 04:50:06;;;;;;;1.10;0.93;;;;;;;5.21;59.46;98527.38;4261643;33;20109;-94
2023/11/24 04:52:31;;;;;;;0.45;0.45;;;;;;;5.10;59.46;98530.25;4265322;33;20729;-94
2023/11/24 04:54:57;;;;;;;1.58;1.48;;;;;;;5.23;59.46;98520.41;4268098;33;20137;-94
2023/11/24 04:57:22;;;;;;;1.95;1.77;;;;;;;5.19;59.47;98506.75;4264861;33;20120;-94
2023/11/24 04:59:51;;;;;;;1.85;1.75;;;;;;;5.23;59.46;98510.94;4297170;33;20121;-94
2023/11/24 05:02:19;;;;;;;2.72;1.20;;;;;;;5.39;59.48;98502.72;4273170;33;20120;-94
2023/11/24 05:04:48;;;;;;;0.82;0.80;;;;;;;5.39;59.48;98508.72;4274307;33;20167;-93
2023/11/24 05:07:17;;;;;;;4.85;3.30;;;;;;;5.37;59.47;98510.50;4274467;33;20104;-93
2023/11/24 05:12:53;;;;;;;0.90;0.85;;;;;;;5.50;59.48;98496.34;4282977;33;20112;-95
2023/11/24 05:15:57;;;;;;;0.30;0.30;;;;;;;5.30;59.46;98490.13;4283777;33;20097;-96
2023/11/24 05:18:25;;;;;;;0.50;0.50;;;;;;;5.24;59.46;98480.84;4281580;33;20085;-95
2023/11/24 05:20:58;;;;;;;1.10;1.10;;;;;;;5.19;59.47;98493.00;4275854;33;20078;-93
2023/11/24 05:23:31;;;;;;;0.88;0.88;;;;;;;5.18;59.47;98492.16;4277096;33;20571;-93
2023/11/24 05:26:00;;;;;;;3.83;1.83;;;;;;;5.33;59.48;98479.69;4285090;33;20129;-94
2023/11/24 05:28:28;;;;;;;2.33;0.90;;;;;;;5.18;59.47;98484.41;4292282;33;20119;-94
2023/11/24 05:31:03;;;;;;;1.40;1.30;;;;;;;5.28;59.47;98479.00;4274287;33;20169;-94
2023/11/24 05:33:30;;;;;;;14.25;1.42;;;;;;;5.11;59.46;98474.34;4279879;33;20517;-94
2023/11/24 05:36:08;;;;;;;3.22;1.42;;;;;;;5.34;59.47;98473.62;4279754;33;20119;-95
2023/11/24 05:38:33;;;;;;;0.40;0.40;;;;;;;5.38;59.47;98458.00;4280582;33;20138;-95
2023/11/24 05:40:59;;;;;;;1.85;1.55;;;;;;;5.63;59.49;98452.91;4291653;33;20109;-93
2023/11/24 05:43:30;;;;;;;0.65;0.52;;;;;;;5.29;59.47;98452.31;4267981;33;20108;-95
2023/11/24 05:45:55;;;;;;;0.65;0.57;;;;;;;5.20;59.46;98443.09;4281570;33;20097;-94
2023/11/24 05:48:21;;;;;;;2.85;2.60;;;;;;;5.17;59.47;98441.47;4284836;33;20419;-93
2023/11/24 05:50:46;;;;;;;0.00;0.00;;;;;;;5.15;59.46;98437.25;4266532;33;20180;-93
2023/11/24 05:53:11;;;;;;;5.90;2.30;;;;;;;5.10;59.46;98432.22;4267517;33;20104;-93
2023/11/24 05:55:37;;;;;;;1.15;1.10;;;;;;;5.14;59.46;98415.75;4266072;33;20096;-92
2023/11/24 05:58:05;;;;;;;3.37;1.98;;;;;;;5.18;59.47;98417.34;4266271;33;20120;-92
2023/11/24 06:00:33;;;;;;;1.37;1.27;;;;;;;5.22;59.46;98426.72;4277629;33;20109;-91
2023/11/24 06:02:59;;;;;;;2.58;2.37;;;;;;;5.53;59.47;98423.13;4289737;33;20100;-93
2023/11/24 06:05:25;;;;;;;1.92;1.83;;;;;;;5.62;59.49;98425.41;4298907;33;20149;-92
2023/11/24 06:07:50;;;;;;;1.85;1.60;;;;;;;5.29;59.47;98424.78;4289266;33;20135;-93
2023/11/24 06:10:16;;;;;;;3.95;2.08;;;;;;;5.35;59.47;98431.47;4287157;33;20165;-94
2023/11/24 06:12:41;;;;;;;2.05;1.92;;;;;;;5.18;59.47;98419.09;4263672;33;20167;-93
2023/11/24 06:15:09;;;;;;;5.15;2.87;;;;;;;5.15;59.46;98424.34;4276815;33;20100;-93
2023/11/24 06:17:35;;;;;;;4.65;2.50;;;;;;;4.87;59.45;98421.78;4278781;33;20180;-93
2023/11/24 06:20:00;;;;;;;0.80;0.77;;;;;;;4.92;59.45;98422.47;4276863;33;20121;-93
2023/11/24 06:22:25;;;;;;;4.12;2.35;;;;;;;5.11;59.46;98421.03;4278190;33;20137;-93
2023/11/24 06:24:53;;;;;;;8.50;2.15;;;;;;;5.22;59.46;98418.13;4278145;33;20733;-93
2023/11/24 06:27:19;;;;;;;0.90;0.90;;;;;;;5.33;59.48;98422.94;4277897;33;20124;-93
2023/11/24 06:29:44;;;;;;;1.08;1.08;;;;;;;5.46;59.48;98421.66;4288972;33;20479;-92
2023/11/24 06:32:12;;;;;;;0.93;0.90;;;;;;;5.42;59.48;98420.88;4279064;33;20180;-91
2023/11/24 06:34:37;;;;;;;1.77;1.67;;;;;;;5.23;59.46;98424.97;4264177;33;20061;-91
2023/11/24 06:37:03;;;;;;;0.70;0.70;;;;;;;5.31;59.48;98420.41;4292962;33;20651;-93
2023/11/24 06:39:29;;;;;;;0.52;0.50;;;;;;;5.30;59.47;98438.50;4255973;33;20155;-93
2023/11/24 06:41:54;;;;;;;3.10;2.90;;;;;;;5.20;59.47;98435.34;4275423;33;20176;-89
2023/11/24 06:44:20;;;;;;;1.42;1.33;;;;;;;5.34;59.47;98429.78;4290184;33;25043;-96
2023/11/24 06:46:45;;;;;;;3.42;2.33;;;;;;;5.39;59.48;98430.47;4261595;33;20145;-96
2023/11/24 06:49:11;;;;;;;1.23;1.12;;;;;;;5.55;59.49;98442.00;4263146;33;20395;-96
2023/11/24 06:51:38;;;;;;;5.85;2.67;;;;;;;5.54;59.49;98435.97;4279913;33;20543;-96
2023/11/24 06:54:04;;;;;;;2.17;1.98;;;;;;;5.63;59.49;98434.81;4277092;33;20720;-96
2023/11/24 06:56:31;;;;;;;3.12;2.58;;;;;;;5.70;59.49;98438.91;4270711;33;20113;-95
2023/11/24 06:58:56;;;;;;;1.35;1.33;;;;;;;5.76;59.50;98436.13;4253822;33;20172;-96
2023/11/24 07:01:31;;;;;;;2.58;2.28;;;;;;;5.58;59.48;98441.88;4269871;33;20109;-96
2023/11/24 07:04:00;;;;;;;1.30;1.25;;;;;;;5.62;59.49;98438.31;4278172;33;20056;-96
2023/11/24 07:06:26;;;;;;;3.80;2.77;;;;;;;5.79;59.49;98433.44;4278781;33;20763;-96
2023/11/24 07:08:52;;;;;;;9.70;3.85;;;;;;;5.88;59.50;98434.84;4282531;33;20188;-96
2023/11/24 07:11:19;;;;;;;4.82;4.37;;;;;;;5.89;59.50;98443.44;4258458;33;20525;-96
2023/11/24 07:13:44;;;;;;;3.22;2.17;;;;;;;5.95;59.50;98440.69;4244732;33;20105;-96
2023/11/24 07:16:10;;;;;;;4.03;2.20;;;;;;;6.18;59.52;98429.56;4271058;33;20068;-96
2023/11/24 07:18:36;;;;;;;0.35;0.35;;;;;;;6.31;59.52;98433.38;4298747;33;20104;-95
2023/11/24 07:21:07;;;;;;;0.00;0.00;;;;;;;6.50;59.54;98424.06;4294554;33;20451;-96
2023/11/24 07:23:33;;;;;;;0.10;0.10;;;;;;;6.84;59.56;98425.38;4274351;33;20086;-96
2023/11/24 07:25:59;;;;;;;2.65;0.90;;;;;;;7.14;59.57;98424.22;4276256;33;20108;-96
2023/11/24 07:28:27;;;;;;;0.45;0.45;;;;;;;7.26;59.58;98426.31;4300612;33;20069;-96
2023/11/24 07:31:05;;;;;;;0.03;0.03;;;;;;;7.47;59.58;98426.38;4289725;33;20112;-96
2023/11/24 07:33:34;;;;;;;4.25;0.30;;;;;;;7.67;59.60;98426.41;4290939;33;20065;-96
2023/11/24 07:36:09;;;;;;;1.52;1.17;;;;;;;7.92;59.62;98418.44;4289726;33;20125;-96
2023/11/24 07:38:45;;;;;;;1.17;0.75;;;;;;;8.10;59.63;98434.97;4303777;33;20065;-96
2023/11/24 07:41:11;;;;;;;8.30;1.35;;;;;;;8.18;59.63;98444.06;4288845;33;20112;-96
2023/11/24 07:43:51;;;;;;;0.22;0.22;;;;;;;8.28;59.63;98442.78;4298141;33;20088;-96
2023/11/24 07:46:17;;;;;;;0.05;0.05;;;;;;;8.41;59.64;98440.50;4292872;33;20127;-96
2023/11/24 07:48:43;;;;;;;0.00;0.00;;;;;;;8.48;59.65;98428.12;4270606;33;20149;-96
2023/11/24 07:51:10;;;;;;;0.10;0.10;;;;;;;8.70;59.66;98430.59;4294483;33;20164;-96
2023/11/24 07:53:35;;;;;;;0.00;0.00;;;;;;;8.78;59.66;98429.34;4278472;33;20100;-96
2023/11/24 07:56:01;;;;;;;0.00;0.00;;;;;;;8.76;59.67;98428.56;4257515;33;20123;-96
2023/11/24 07:58:28;;;;;;;0.05;0.05;;;;;;;8.89;59.66;98434.03;4265938;33;20139;-96
2023/11/24 08:00:54;;;;;;;0.52;0.40;;;;;;;8.93;59.67;98431.22;4281041;33;20752;-96
2023/11/24 08:03:20;;;;;;;0.00;0.00;;;;;;;9.16;59.68;98437.09;4280950;33;20144;-96
2023/11/24 08:05:50;;;;;;;0.00;0.00;;;;;;;9.06;59.68;98438.44;4262489;33;20089;-96
2023/11/24 08:08:20;;;;;;;0.00;0.00;;;;;;;9.08;59.68;98447.00;4287743;33;20164;-96
2023/11/24 08:10:46;;;;;;;0.23;0.23;;;;;;;9.15;59.68;98446.63;4292553;33;20103;-96
2023/11/24 08:13:13;;;;;;;0.37;0.37;;;;;;;9.25;59.68;98449.66;4282380;33;20113;-96
2023/11/24 08:15:39;;;;;;;0.00;0.00;;;;;;;9.23;59.69;98448.88;4270717;33;20095;-96
2023/11/24 08:18:07;;;;;;;1.10;0.62;;;;;;;9.22;59.69;98447.19;4284543;33;20116;-96
2023/11/24 08:20:35;;;;;;;0.95;0.82;;;;;;;9.21;59.69;98440.31;4269669;33;20081;-95
2023/11/24 08:23:01;;;;;;;2.50;0.57;;;;;;;9.21;59.69;98435.09;4279582;33;20938;-96
2023/11/24 08:25:27;;;;;;;0.00;0.00;;;;;;;9.20;59.69;98438.63;4284729;33;20104;-96
2023/11/24 08:27:56;;;;;;;2.62;1.00;;;;;;;9.27;59.69;98447.81;4271072;33;20170;-96
2023/11/24 08:30:25;;;;;;;0.00;0.00;;;;;;;9.31;59.69;98431.19;4282279;33;20116;-96
2023/11/24 08:32:51;;;;;;;0.35;0.35;;;;;;;9.20;59.69;98428.25;4283869;33;20095;-96
2023/11/24 08:35:16;;;;;;;0.00;0.00;;;;;;;9.14;59.68;98436.31;4258030;33;20092;-96
2023/11/24 08:37:42;;;;;;;0.00;0.00;;;;;;;9.02;59.67;98437.75;4302023;33;20408;-96
2023/11/24 08:40:11;;;;;;;0.20;0.20;;;;;;;8.98;59.68;98430.16;4271005;33;20143;-96
2023/11/24 08:42:38;;;;;;;0.00;0.00;;;;;;;9.13;59.68;98445.87;4269504;33;20243;-96
2023/11/24 08:45:06;;;;;;;0.22;0.22;;;;;;;9.28;59.69;98469.44;4256056;33;20084;-95
2023/11/24 08:47:31;;;;;;;0.00;0.00;;;;;;;9.23;59.69;98465.31;4278024;33;20165;-95
2023/11/24 08:49:57;;;;;;;0.00;0.00;;;;;;;9.32;59.68;98456.22;4274846;33;20136;-96
2023/11/24 08:52:22;;;;;;;0.10;0.10;;;;;;;9.33;59.69;98455.31;4261133;33;20140;-95
2023/11/24 08:54:49;;;;;;;0.00;0.00;;;;;;;9.32;59.69;98463.19;4270061;33;20245;-95
2023/11/24 08:57:16;;;;;;;0.35;0.35;;;;;;;9.32;59.69;98443.25;4259236;33;20101;-95
2023/11/24 08:59:44;;;;;;;0.00;0.00;;;;;;;9.28;59.69;98456.44;4274375;33;20081;-95
2023/11/24 09:02:10;;;;;;;0.00;0.00;;;;;;;9.18;59.68;98443.03;4269785;33;20104;-95
2023/11/24 09:04:35;;;;;;;0.00;0.00;;;;;;;9.03;59.67;98423.03;4275573;33;20148;-94
2023/11/24 09:07:01;;;;;;;0.00;0.00;;;;;;;9.33;59.69;98420.72;4257893;33;20132;-94
2023/11/24 09:09:28;;;;;;;0.00;0.00;;;;;;;9.40;59.70;98409.94;4268857;33;20108;-95
2023/11/24 09:11:54;;;;;;;0.00;0.00;;;;;;;9.34;59.70;98401.63;4270962;33;20072;-95
2023/11/24 09:14:20;;;;;;;0.00;0.00;;;;;;;9.37;59.69;98397.12;4263631;33;20132;-94
2023/11/24 09:16:45;;;;;;;0.00;0.00;;;;;;;9.29;59.69;98393.22;4279060;33;20105;-96
2023/11/24 09:19:11;;;;;;;0.00;0.00;;;;;;;9.61;59.71;98400.28;4272122;33;20143;-96
2023/11/24 09:21:37;;;;;;;0.00;0.00;;;;;;;9.90;59.73;98404.00;4270306;33;20164;-95
2023/11/24 09:24:04;;;;;;;0.00;0.00;;;;;;;9.81;59.73;98397.53;4269056;33;20115;-94
2023/11/24 09:26:30;;;;;;;0.00;0.00;;;;;;;9.85;59.72;98378.25;4305275;33;20173;-95
2023/11/24 09:28:58;;;;;;;0.00;0.00;;;;;;;9.89;59.73;98384.13;4276978;33;20165;-96
2023/11/24 09:31:27;;;;;;;0.00;0.00;;;;;;;9.80;59.73;98364.66;4262080;33;20088;-94
2023/11/24 09:33:53;;;;;;;0.00;0.00;;;;;;;9.98;59.73;98352.47;4301521;33;20096;-94
2023/11/24 09:36:18;;;;;;;0.00;0.00;;;;;;;9.74;59.72;98349.38;4270191;33;20140;-96
2023/11/24 09:38:46;;;;;;;0.17;0.17;;;;;;;9.77;59.71;98330.19;4280708;33;20225;-95
2023/11/24 09:41:13;;;;;;;0.00;0.00;;;;;;;9.87;59.73;98321.00;4291866;33;20796;-96
2023/11/24 09:43:39;;;;;;;0.00;0.00;;;;;;;9.84;59.72;98334.16;4268044;33;20116;-95
2023/11/24 09:46:05;;;;;;;0.00;0.00;;;;;;;9.74;59.72;98340.75;4305519;33;20113;-95
2023/11/24 09:48:34;;;;;;;0.00;0.00;;;;;;;9.66;59.71;98341.13;4274289;33;20101;-95
2023/11/24 09:51:05;;;;;;;0.00;0.00;;;;;;;9.66;59.71;98315.13;4269404;33;20175;-94
2023/11/24 09:53:34;;;;;;;0.00;0.00;;;;;;;9.68;59.71;98317.66;4290998;33;20096;-96
2023/11/24 09:56:06;;;;;;;0.00;0.00;;;;;;;9.91;59.72;98314.72;4267119;33;20113;-95
2023/11/24 09:58:37;;;;;;;0.00;0.00;;;;;;;10.22;59.74;98316.59;4268214;33;20101;-96
2023/11/24 10:01:06;;;;;;;0.00;0.00;;;;;;;10.27;59.75;98298.97;4297160;33;20141;-96
2023/11/24 10:03:35;;;;;;;0.00;0.00;;;;;;;10.39;59.75;98294.84;4294631;33;20073;-95
2023/11/24 10:06:01;;;;;;;0.00;0.00;;;;;;;10.63;59.77;98292.66;4273197;33;20128;-95
2023/11/24 10:08:26;;;;;;;0.00;0.00;;;;;;;10.59;59.76;98292.00;4270640;33;20108;-96
2023/11/24 10:10:52;;;;;;;0.00;0.00;;;;;;;10.04;59.73;98288.94;4300144;33;20134;-95
2023/11/24 10:13:17;;;;;;;0.00;0.00;;;;;;;9.81;59.72;98277.13;4268262;33;20112;-95
2023/11/24 10:15:43;;;;;;;0.00;0.00;;;;;;;9.53;59.71;98278.56;4268399;33;20113;-96
2023/11/24 10:18:08;;;;;;;0.00;0.00;;;;;;;9.34;59.70;98293.41;4268406;33;20137;-96
2023/11/24 10:20:38;;;;;;;0.08;0.08;;;;;;;9.36;59.70;98283.78;4288299;33;20541;-96
2023/11/24 10:23:07;;;;;;;0.00;0.00;;;;;;;9.48;59.70;98308.31;4272200;33;20142;-94
2023/11/24 10:25:34;;;;;;;0.00;0.00;;;;;;;9.47;59.70;98286.69;4267421;33;20131;-95
2023/11/24 10:28:00;;;;;;;0.00;0.00;;;;;;;9.26;59.68;98287.75;4266636;33;20780;-95
2023/11/24 10:30:26;;;;;;;0.00;0.00;;;;;;;9.36;59.70;98283.78;4279005;33;20167;-95
2023/11/24 10:32:52;;;;;;;0.00;0.00;;;;;;;9.54;59.70;98259.47;4276026;33;20134;-95
2023/11/24 10:35:19;;;;;;;0.00;0.00;;;;;;;9.46;59.70;98251.25;4267109;33;20121;-95
2023/11/24 10:37:45;;;;;;;0.17;0.17;;;;;;;9.49;59.71;98251.06;4266031;33;20133;-95
2023/11/24 10:40:13;;;;;;;0.00;0.00;;;;;;;9.41;59.69;98255.81;4266679;33;20092;-94
2023/11/24 10:42:47;;;;;;;0.00;0.00;;;;;;;9.45;59.70;98252.12;4276166;33;20806;-96
2023/11/24 10:45:14;;;;;;;0.00;0.00;;;;;;;9.63;59.70;98252.09;4268087;33;20138;-94
2023/11/24 10:47:57;;;;;;;0.00;0.00;;;;;;;9.70;59.71;98243.06;4266495;33;20165;-95
2023/11/24 10:50:25;;;;;;;0.00;0.00;;;;;;;9.88;59.73;98228.28;4290602;33;20115;-95
2023/11/24 10:53:28;;;;;;;0.00;0.00;;;;;;;9.78;59.71;98231.38;4270859;33;20100;-95
2023/11/24 10:55:56;;;;;;;0.00;0.00;;;;;;;9.92;59.72;98221.97;4263120;33;20144;-95
2023/11/24 10:58:22;;;;;;;0.00;0.00;;;;;;;10.08;59.73;98215.03;4267012;33;20136;-96
2023/11/24 11:00:48;;;;;;;0.00;0.00;;;;;;;10.03;59.74;98209.25;4270223;33;20152;-96
2023/11/24 11:03:15;;;;;;;0.00;0.00;;;;;;;10.14;59.74;98199.09;4269004;33;20104;-95
2023/11/24 11:06:14;;;;;;;0.00;0.00;;;;;;;10.00;59.73;98191.22;4265733;33;20124;-96
2023/11/24 11:08:46;;;;;;;0.00;0.00;;;;;;;9.73;59.72;98177.97;4267329;33;20799;-96
2023/11/24 11:11:39;;;;;;;0.13;0.13;;;;;;;9.71;59.71;98200.59;4266466;33;20151;-95
2023/11/24 11:14:05;;;;;;;0.00;0.00;;;;;;;9.82;59.72;98217.28;4283763;33;20143;-95
2023/11/24 11:16:31;;;;;;;0.25;0.25;;;;;;;9.79;59.73;98221.81;4258390;33;20155;-95
2023/11/24 11:19:02;;;;;;;0.00;0.00;;;;;;;9.80;59.73;98213.09;4266935;33;20100;-95
2023/11/24 11:21:31;;;;;;;0.00;0.00;;;;;;;9.51;59.71;98201.66;4277098;33;121367;-94
2023/11/24 11:23:57;;;;;;;0.00;0.00;;;;;;;9.37;59.70;98215.34;4290582;33;20084;-94
2023/11/24 11:26:45;;;;;;;0.10;0.10;;;;;;;9.53;59.70;98221.44;4266992;33;20164;-95
2023/11/24 11:29:12;;;;;;;0.00;0.00;;;;;;;9.58;59.71;98230.72;4278165;33;20146;-94
2023/11/24 11:31:38;;;;;;;0.00;0.00;;;;;;;9.42;59.70;98236.72;4266059;33;20830;-95
2023/11/24 11:34:14;;;;;;;0.00;0.00;;;;;;;9.37;59.70;98224.87;4275627;33;20100;-95
2023/11/24 11:37:06;;;;;;;0.00;0.00;;;;;;;9.29;59.69;98190.69;4265502;33;20755;-95
2023/11/24 11:39:57;;;;;;;0.00;0.00;;;;;;;9.11;59.67;98203.69;4276691;33;20100;-96
2023/11/24 11:42:31;;;;;;;0.00;0.00;;;;;;;9.18;59.68;98199.00;4275972;33;20119;-95
2023/11/24 11:45:03;;;;;;;0.00;0.00;;;;;;;9.38;59.70;98183.25;4267817;33;20119;-95
2023/11/24 11:47:29;;;;;;;0.00;0.00;;;;;;;9.20;59.69;98192.00;4278183;33;20112;-96